Time;durP1;ratioP1;P1;durP2;ratioP2;P2;SDS_P1;SDS_P2;PMS_P1;PMS_P2;Temp;Humidity;BMP_temperature;BMP_pressure;BME280_temperature;BME280_humidity;BME280_pressure;Samples;Min_cycle;Max_cycle;Signal;HPM_P1;HPM_P2
2024/01/24 00:01:49;;;;;;;;;;;;;;;4.92;100.00;100015.47;5040157;28;19947;-81
2024/01/24 00:04:22;;;;;;;;;;;;;;;4.98;100.00;100012.84;5036124;28;19931;-83
2024/01/24 00:06:55;;;;;;;;;;;;;;;5.03;100.00;100008.28;5040694;28;19940;-83
2024/01/24 00:09:30;;;;;;;;;;;;;;;5.03;100.00;100010.19;5036382;28;19921;-84
2024/01/24 00:12:06;;;;;;;;;;;;;;;5.10;100.00;100008.06;5041474;28;19928;-80
2024/01/24 00:14:39;;;;;;;;;;;;;;;5.19;100.00;100003.81;5058822;28;19928;-84
2024/01/24 00:17:11;;;;;;;;;;;;;;;5.25;100.00;100007.34;5043905;28;19924;-84
2024/01/24 00:19:44;;;;;;;;;;;;;;;5.31;100.00;100005.50;5024977;28;19992;-84
2024/01/24 00:22:17;;;;;;;;;;;;;;;5.37;100.00;99991.78;5035048;28;20305;-83
2024/01/24 00:24:50;;;;;;;;;;;;;;;5.36;100.00;99979.34;5037650;28;20285;-84
2024/01/24 00:27:25;;;;;;;;;;;;;;;5.50;100.00;99952.69;5036269;28;19936;-83
2024/01/24 00:29:57;;;;;;;;;;;;;;;5.54;100.00;99961.88;5035219;28;19921;-80
2024/01/24 00:32:30;;;;;;;;;;;;;;;5.60;100.00;99952.72;5037586;28;19921;-83
2024/01/24 00:34:59;;;;;;;;;;;;;;;5.65;100.00;99953.81;5039619;28;19932;-83
2024/01/24 00:37:32;;;;;;;;;;;;;;;5.73;100.00;99945.19;5037804;28;19925;-81
2024/01/24 00:40:05;;;;;;;;;;;;;;;5.84;100.00;99922.56;5039280;28;19921;-83
2024/01/24 00:42:42;;;;;;;;;;;;;;;5.93;100.00;99922.84;5042920;28;19921;-83
2024/01/24 00:45:15;;;;;;;;;;;;;;;6.01;100.00;99918.81;5026917;28;20375;-84
2024/01/24 00:47:48;;;;;;;;;;;;;;;6.07;100.00;99923.16;5047205;28;19920;-82
2024/01/24 00:50:16;;;;;;;;;;;;;;;6.12;100.00;99921.28;5041603;28;19927;-83
2024/01/24 00:52:52;;;;;;;;;;;;;;;6.22;100.00;99901.56;5049556;28;19936;-83
2024/01/24 00:55:20;;;;;;;;;;;;;;;6.39;100.00;99900.47;5042681;28;20293;-83
2024/01/24 00:57:49;;;;;;;;;;;;;;;6.47;100.00;99906.16;5045784;28;19932;-83
2024/01/24 01:00:17;;;;;;;;;;;;;;;6.50;100.00;99883.16;5044928;28;19931;-83
2024/01/24 01:02:50;;;;;;;;;;;;;;;6.55;100.00;99904.78;5048727;28;19928;-83
2024/01/24 01:05:24;;;;;;;;;;;;;;;6.76;100.00;99902.88;5042589;28;19921;-83
2024/01/24 01:07:52;;;;;;;;;;;;;;;6.76;100.00;99904.78;5043180;28;19928;-84
2024/01/24 01:10:20;;;;;;;;;;;;;;;6.93;100.00;99910.69;5032560;28;19921;-84
2024/01/24 01:12:55;;;;;;;;;;;;;;;6.96;100.00;99896.63;5060358;28;19928;-80
2024/01/24 01:15:24;;;;;;;;;;;;;;;7.08;100.00;99899.00;5042071;28;20393;-84
2024/01/24 01:17:52;;;;;;;;;;;;;;;7.18;100.00;99900.88;5043932;28;19925;-82
2024/01/24 01:20:25;;;;;;;;;;;;;;;7.27;100.00;99882.97;5044211;28;19959;-82
2024/01/24 01:22:58;;;;;;;;;;;;;;;7.27;100.00;99879.47;5045838;28;20412;-81
2024/01/24 01:25:31;;;;;;;;;;;;;;;7.31;100.00;99886.75;5044702;28;19929;-83
2024/01/24 01:28:00;;;;;;;;;;;;;;;7.39;100.00;99879.94;5042951;28;19928;-83
2024/01/24 01:30:28;;;;;;;;;;;;;;;7.49;100.00;99877.19;5039102;28;19920;-83
2024/01/24 01:33:01;;;;;;;;;;;;;;;7.52;100.00;99873.09;5045095;28;19928;-83
2024/01/24 01:35:35;;;;;;;;;;;;;;;7.53;100.00;99861.19;5041663;28;19925;-83
2024/01/24 01:38:03;;;;;;;;;;;;;;;7.53;100.00;99844.94;5062102;28;20361;-83
2024/01/24 01:40:36;;;;;;;;;;;;;;;7.60;100.00;99845.44;5027318;28;19925;-82
2024/01/24 01:43:13;;;;;;;;;;;;;;;7.65;100.00;99837.28;5039986;28;19920;-83
2024/01/24 01:45:41;;;;;;;;;;;;;;;7.80;100.00;99819.31;5044987;28;19925;-82
2024/01/24 01:48:09;;;;;;;;;;;;;;;7.87;100.00;99808.97;5023732;28;19928;-80
2024/01/24 01:50:38;;;;;;;;;;;;;;;7.94;100.00;99808.63;5047669;28;19971;-82
2024/01/24 01:53:11;;;;;;;;;;;;;;;7.91;100.00;99815.44;5044654;28;19920;-82
2024/01/24 01:55:44;;;;;;;;;;;;;;;8.02;100.00;99799.88;5041915;28;19936;-83
2024/01/24 01:58:15;;;;;;;;;;;;;;;8.02;100.00;99780.13;5039955;28;19963;-80
2024/01/24 02:00:49;;;;;;;;;;;;;;;8.05;100.00;99769.53;5043062;28;19928;-83
2024/01/24 02:03:23;;;;;;;;;;;;;;;8.13;100.00;99776.22;5045748;28;20000;-81
2024/01/24 02:05:55;;;;;;;;;;;;;;;8.12;100.00;99780.84;5030158;28;19936;-83
2024/01/24 02:08:31;;;;;;;;;;;;;;;8.11;100.00;99765.66;5044088;28;19939;-83
2024/01/24 02:11:04;;;;;;;;;;;;;;;8.09;100.00;99767.88;5034423;28;19928;-82
2024/01/24 02:13:38;;;;;;;;;;;;;;;8.26;100.00;99772.03;5053527;28;19925;-81
2024/01/24 02:16:08;;;;;;;;;;;;;;;8.24;100.00;99763.38;5042012;28;20273;-83
2024/01/24 02:18:42;;;;;;;;;;;;;;;8.30;100.00;99740.53;5045502;28;20392;-81
2024/01/24 02:21:15;;;;;;;;;;;;;;;8.27;100.00;99744.66;5044987;28;19929;-82
2024/01/24 02:23:43;;;;;;;;;;;;;;;8.28;100.00;99731.91;5041675;28;19924;-82
2024/01/24 02:26:18;;;;;;;;;;;;;;;8.38;100.00;99725.56;5044078;28;19939;-81
2024/01/24 02:28:51;;;;;;;;;;;;;;;8.41;100.00;99714.94;5027944;28;19931;-80
2024/01/24 02:31:19;;;;;;;;;;;;;;;8.40;100.00;99712.53;5038974;28;19925;-81
2024/01/24 02:33:47;;;;;;;;;;;;;;;8.46;100.00;99731.16;5037845;28;19928;-82
2024/01/24 02:36:15;;;;;;;;;;;;;;;8.66;100.00;99710.34;5038850;28;19936;-81
2024/01/24 02:38:48;;;;;;;;;;;;;;;8.56;100.00;99716.72;5041238;28;19928;-82
2024/01/24 02:41:19;;;;;;;;;;;;;;;8.59;100.00;99701.75;5041290;28;19925;-82
2024/01/24 02:43:47;;;;;;;;;;;;;;;8.66;100.00;99686.72;5054125;28;19932;-82
2024/01/24 02:46:20;;;;;;;;;;;;;;;8.61;100.00;99696.84;5040033;28;19927;-80
2024/01/24 02:48:48;;;;;;;;;;;;;;;8.73;100.00;99702.66;5038989;28;19932;-82
2024/01/24 02:51:25;;;;;;;;;;;;;;;8.73;100.00;99701.81;5024417;28;19939;-82
2024/01/24 02:53:53;;;;;;;;;;;;;;;8.79;100.00;99689.81;5024320;28;19928;-81
2024/01/24 02:56:27;;;;;;;;;;;;;;;8.78;100.00;99699.88;5038915;28;19932;-82
2024/01/24 02:59:00;;;;;;;;;;;;;;;8.86;100.00;99703.84;5024288;28;19921;-82
2024/01/24 03:01:33;;;;;;;;;;;;;;;8.82;100.00;99694.66;5041232;28;19925;-81
2024/01/24 03:04:01;;;;;;;;;;;;;;;8.96;100.00;99706.41;5025934;28;19935;-82
2024/01/24 03:06:29;;;;;;;;;;;;;;;9.02;100.00;99693.59;5042341;28;19925;-82
2024/01/24 03:09:03;;;;;;;;;;;;;;;9.01;100.00;99709.03;5040210;28;19921;-83
2024/01/24 03:11:33;;;;;;;;;;;;;;;9.11;100.00;99685.56;5036203;28;19921;-80
2024/01/24 03:14:01;;;;;;;;;;;;;;;9.13;100.00;99689.63;5056843;28;19920;-82
2024/01/24 03:16:34;;;;;;;;;;;;;;;9.10;100.00;99664.97;5025164;28;19928;-82
2024/01/24 03:19:03;;;;;;;;;;;;;;;9.17;100.00;99647.22;5034144;28;19929;-82
2024/01/24 03:21:36;;;;;;;;;;;;;;;9.23;100.00;99650.63;5036970;28;19935;-82
2024/01/24 03:24:04;;;;;;;;;;;;;;;9.23;100.00;99650.63;5040182;28;19935;-81
2024/01/24 03:26:38;;;;;;;;;;;;;;;9.26;100.00;99633.75;5039336;28;19925;-82
2024/01/24 03:29:11;;;;;;;;;;;;;;;9.21;100.00;99624.88;5024695;28;19925;-81
2024/01/24 03:31:42;;;;;;;;;;;;;;;9.21;100.00;99631.16;5021543;28;19921;-82
2024/01/24 03:34:15;;;;;;;;;;;;;;;9.18;100.00;99623.56;5043449;28;20270;-82
2024/01/24 03:36:43;;;;;;;;;;;;;;;9.23;100.00;99628.94;5040529;28;19925;-81
2024/01/24 03:39:11;;;;;;;;;;;;;;;9.23;100.00;99644.41;5039453;28;19921;-82
2024/01/24 03:41:40;;;;;;;;;;;;;;;9.25;100.00;99640.28;5040786;28;19925;-81
2024/01/24 03:44:13;;;;;;;;;;;;;;;9.29;100.00;99648.66;5039964;28;19924;-82
2024/01/24 03:46:46;;;;;;;;;;;;;;;9.28;100.00;99637.00;5021708;28;19929;-82
2024/01/24 03:49:14;;;;;;;;;;;;;;;9.32;100.00;99631.75;5036655;28;20271;-82
2024/01/24 03:51:47;;;;;;;;;;;;;;;9.31;100.00;99625.53;5040621;28;19925;-82
2024/01/24 03:54:22;;;;;;;;;;;;;;;9.40;100.00;99601.22;5038485;28;19928;-82
2024/01/24 03:56:51;;;;;;;;;;;;;;;9.47;100.00;99619.84;5039716;28;19955;-82
2024/01/24 03:59:19;;;;;;;;;;;;;;;9.52;100.00;99636.84;5039157;28;19928;-82
2024/01/24 04:01:52;;;;;;;;;;;;;;;9.45;100.00;99666.31;5037367;28;19931;-81
2024/01/24 04:04:20;;;;;;;;;;;;;;;9.53;100.00;99728.09;5043334;28;19929;-82
2024/01/24 04:06:48;;;;;;;;;;;;;;;9.25;100.00;99696.50;5022170;28;19935;-82
2024/01/24 04:09:16;;;;;;;;;;;;;;;9.03;100.00;99706.03;5039471;28;19925;-82
2024/01/24 04:11:50;;;;;;;;;;;;;;;8.71;100.00;99687.75;5038567;28;19928;-83
2024/01/24 04:14:23;;;;;;;;;;;;;;;8.55;100.00;99668.16;5041574;28;20270;-82
2024/01/24 04:16:51;;;;;;;;;;;;;;;8.55;100.00;99668.16;5032080;28;19928;-83
2024/01/24 04:19:24;;;;;;;;;;;;;;;8.68;100.00;99681.00;5042964;28;20301;-82
2024/01/24 04:21:57;;;;;;;;;;;;;;;8.79;100.00;99689.81;5041673;28;19924;-83
2024/01/24 04:24:30;;;;;;;;;;;;;;;8.84;100.00;99677.00;5042517;28;19922;-83
2024/01/24 04:27:05;;;;;;;;;;;;;;;8.87;100.00;99691.09;5041840;28;19924;-80
2024/01/24 04:29:38;;;;;;;;;;;;;;;8.80;100.00;99673.25;5038933;28;19928;-82
2024/01/24 04:32:11;;;;;;;;;;;;;;;8.78;100.00;99664.63;5037692;28;19921;-82
2024/01/24 04:34:44;;;;;;;;;;;;;;;8.79;100.00;99679.78;5020548;28;19924;-82
2024/01/24 04:37:17;;;;;;;;;;;;;;;8.74;100.00;99687.19;5038167;28;20196;-82
2024/01/24 04:39:45;;;;;;;;;;;;;;;8.60;100.00;99695.22;5035017;28;19928;-82
2024/01/24 04:42:19;;;;;;;;;;;;;;;8.48;100.00;99720.84;5041666;28;19925;-83
2024/01/24 04:44:52;;;;;;;;;;;;;;;8.47;100.00;99702.16;5039173;28;19920;-81
2024/01/24 04:47:25;;;;;;;;;;;;;;;8.39;100.00;99711.72;5038883;28;19928;-81
2024/01/24 04:49:53;;;;;;;;;;;;;;;8.36;100.00;99685.19;5026856;28;19929;-81
2024/01/24 04:52:22;;;;;;;;;;;;;;;8.40;100.00;99675.38;5036513;28;19924;-80
2024/01/24 04:54:54;;;;;;;;;;;;;;;8.35;100.00;99694.41;5040498;28;19932;-81
2024/01/24 04:57:29;;;;;;;;;;;;;;;8.42;100.00;99696.78;5035688;28;19929;-82
2024/01/24 04:59:57;;;;;;;;;;;;;;;8.42;100.00;99697.56;5023146;28;19921;-82
2024/01/24 05:02:25;;;;;;;;;;;;;;;8.43;100.00;99722.78;5053332;28;19925;-83
2024/01/24 05:04:58;;;;;;;;;;;;;;;8.38;100.00;99736.41;5037842;28;19929;-81
2024/01/24 05:07:26;;;;;;;;;;;;;;;8.40;100.00;99728.81;5022549;28;19929;-83
2024/01/24 05:09:54;;;;;;;;;;;;;;;8.35;100.00;99718.81;5035695;28;19931;-82
2024/01/24 05:12:29;;;;;;;;;;;;;;;8.41;100.00;99723.09;5040586;28;19928;-82
2024/01/24 05:15:02;;;;;;;;;;;;;;;8.36;100.00;99697.94;5037783;28;20303;-81
2024/01/24 05:17:35;;;;;;;;;;;;;;;8.26;100.00;99718.63;5038831;28;19931;-81
2024/01/24 05:20:08;;;;;;;;;;;;;;;8.24;100.00;99745.22;5038194;28;19925;-82
2024/01/24 05:22:42;;;;;;;;;;;;;;;8.42;100.00;99721.16;5035486;28;19928;-82
2024/01/24 05:25:15;;;;;;;;;;;;;;;8.64;100.00;99710.63;5043713;28;19921;-81
2024/01/24 05:27:44;;;;;;;;;;;;;;;8.56;100.00;99716.72;5041841;28;19940;-82
2024/01/24 05:30:17;;;;;;;;;;;;;;;8.48;100.00;99729.00;5044553;28;20715;-81
2024/01/24 05:32:46;;;;;;;;;;;;;;;8.63;100.00;99733.44;5042500;28;19931;-81
2024/01/24 05:35:20;;;;;;;;;;;;;;;8.70;100.00;99713.28;5045449;28;19959;-81
2024/01/24 05:37:53;;;;;;;;;;;;;;;8.73;100.00;99731.66;5058729;28;19936;-81
2024/01/24 05:40:26;;;;;;;;;;;;;;;8.62;100.00;99725.59;5043796;28;19927;-82
2024/01/24 05:43:02;;;;;;;;;;;;;;;8.76;100.00;99728.41;5061819;28;19925;-81
2024/01/24 05:45:35;;;;;;;;;;;;;;;8.68;100.00;99737.97;5044503;28;19928;-81
2024/01/24 05:48:09;;;;;;;;;;;;;;;8.75;100.00;99743.06;5040565;28;19928;-81
2024/01/24 05:50:36;;;;;;;;;;;;;;;8.75;100.00;99751.19;5043226;28;20281;-82
2024/01/24 05:53:04;;;;;;;;;;;;;;;8.68;100.00;99744.19;5038078;28;19928;-81
2024/01/24 05:55:32;;;;;;;;;;;;;;;8.65;100.00;99733.13;5040825;28;19924;-82
2024/01/24 05:58:07;;;;;;;;;;;;;;;8.71;100.00;99736.59;5040274;28;20365;-81
2024/01/24 06:00:35;;;;;;;;;;;;;;;8.60;100.00;99760.31;5039670;28;20001;-81
2024/01/24 06:03:08;;;;;;;;;;;;;;;8.56;100.00;99732.97;5019795;28;19931;-81
2024/01/24 06:05:40;;;;;;;;;;;;;;;8.58;100.00;99749.75;5036892;28;19931;-82
2024/01/24 06:08:13;;;;;;;;;;;;;;;8.66;100.00;99765.38;5041483;28;19924;-81
2024/01/24 06:10:46;;;;;;;;;;;;;;;8.59;100.00;99753.25;5038742;28;19921;-82
2024/01/24 06:13:21;;;;;;;;;;;;;;;8.65;100.00;99761.06;5037080;28;19932;-81
2024/01/24 06:15:49;;;;;;;;;;;;;;;8.59;100.00;99759.50;5035481;28;19938;-82
2024/01/24 06:18:17;;;;;;;;;;;;;;;8.60;100.00;99771.16;5040838;28;19925;-81
2024/01/24 06:20:46;;;;;;;;;;;;;;;8.67;100.00;99752.63;5045831;28;19924;-80
2024/01/24 06:23:18;;;;;;;;;;;;;;;8.59;100.00;99758.69;5041445;28;19921;-81
2024/01/24 06:25:46;;;;;;;;;;;;;;;8.61;100.00;99770.88;5044415;28;19925;-80
2024/01/24 06:28:14;;;;;;;;;;;;;;;8.50;100.00;99766.66;5041174;28;19931;-82
2024/01/24 06:30:44;;;;;;;;;;;;;;;8.61;100.00;99775.50;5041291;28;19924;-80
2024/01/24 06:33:12;;;;;;;;;;;;;;;8.57;100.00;99777.16;5038009;28;19925;-81
2024/01/24 06:35:40;;;;;;;;;;;;;;;8.63;100.00;99786.84;5022495;28;19925;-81
2024/01/24 06:38:12;;;;;;;;;;;;;;;8.57;100.00;99772.53;5040815;28;19921;-82
2024/01/24 06:40:40;;;;;;;;;;;;;;;8.70;100.00;99767.53;5038333;28;19924;-80
2024/01/24 06:43:18;;;;;;;;;;;;;;;8.63;100.00;99790.38;5042465;28;19943;-80
2024/01/24 06:45:52;;;;;;;;;;;;;;;8.50;100.00;99818.97;5040473;28;19947;-81
2024/01/24 06:48:25;;;;;;;;;;;;;;;8.20;100.00;99822.75;5024951;28;19924;-79
2024/01/24 06:50:58;;;;;;;;;;;;;;;8.20;100.00;99827.38;5022702;28;20300;-81
2024/01/24 06:53:26;;;;;;;;;;;;;;;8.10;100.00;99822.88;5039609;28;20297;-81
2024/01/24 06:55:59;;;;;;;;;;;;;;;8.08;100.00;99834.00;5033243;28;19925;-81
2024/01/24 06:58:32;;;;;;;;;;;;;;;8.00;100.00;99807.50;5027177;28;19920;-80
2024/01/24 07:01:01;;;;;;;;;;;;;;;8.02;100.00;99832.41;5042273;28;19929;-81
2024/01/24 07:03:29;;;;;;;;;;;;;;;8.01;100.00;99798.28;5040332;28;19936;-80
2024/01/24 07:06:05;;;;;;;;;;;;;;;8.12;100.00;99815.25;5032565;28;19944;-81
2024/01/24 07:08:39;;;;;;;;;;;;;;;8.22;100.00;99828.72;5042677;28;19921;-81
2024/01/24 07:11:12;;;;;;;;;;;;;;;8.15;100.00;99836.38;5044704;28;20404;-81
2024/01/24 07:13:40;;;;;;;;;;;;;;;8.04;100.00;99807.72;5028848;28;20515;-81
2024/01/24 07:16:14;;;;;;;;;;;;;;;8.19;100.00;99818.47;5035094;28;19921;-81
2024/01/24 07:18:42;;;;;;;;;;;;;;;8.17;100.00;99837.72;5042762;28;19921;-82
2024/01/24 07:21:15;;;;;;;;;;;;;;;8.08;100.00;99842.13;5055475;28;19924;-80
2024/01/24 07:23:48;;;;;;;;;;;;;;;8.17;100.00;99836.91;5040314;28;19935;-80
2024/01/24 07:26:23;;;;;;;;;;;;;;;8.20;100.00;99849.06;5037765;28;20405;-81
2024/01/24 07:28:51;;;;;;;;;;;;;;;8.15;100.00;99841.81;5039130;28;19924;-81
2024/01/24 07:31:25;;;;;;;;;;;;;;;8.12;100.00;99847.78;5043250;28;19921;-81
2024/01/24 07:33:53;;;;;;;;;;;;;;;8.26;100.00;99843.31;5057599;28;19920;-80
2024/01/24 07:36:21;;;;;;;;;;;;;;;8.21;100.00;99843.38;5044273;28;19920;-80
2024/01/24 07:38:59;;;;;;;;;;;;;;;8.25;100.00;99824.66;5025773;28;20589;-81
2024/01/24 07:41:32;;;;;;;;;;;;;;;8.31;100.00;99850.59;5051633;28;19936;-82
2024/01/24 07:44:09;;;;;;;;;;;;;;;8.30;100.00;99852.50;5040089;28;19924;-83
2024/01/24 07:46:43;;;;;;;;;;;;;;;8.26;100.00;99856.88;5036557;28;19928;-80
2024/01/24 07:49:16;;;;;;;;;;;;;;;8.12;100.00;99845.06;5032297;28;19931;-80
2024/01/24 07:51:46;;;;;;;;;;;;;;;7.89;100.00;99865.59;5036134;28;19921;-80
2024/01/24 07:54:19;;;;;;;;;;;;;;;7.88;100.00;99877.50;5039376;28;19921;-81
2024/01/24 07:56:53;;;;;;;;;;;;;;;7.86;100.00;99869.66;5043341;28;20542;-82
2024/01/24 07:59:21;;;;;;;;;;;;;;;7.78;100.00;99879.19;5039129;28;19924;-82
2024/01/24 08:01:56;;;;;;;;;;;;;;;7.88;100.00;99882.91;5036096;28;19920;-80
2024/01/24 08:04:24;;;;;;;;;;;;;;;7.86;100.00;99874.25;5034581;28;19932;-81
2024/01/24 08:06:57;;;;;;;;;;;;;;;7.85;100.00;99873.44;5052588;28;19929;-82
2024/01/24 08:09:30;;;;;;;;;;;;;;;7.76;100.00;99878.66;5038060;28;19932;-82
2024/01/24 08:12:03;;;;;;;;;;;;;;;7.74;100.00;99883.53;5034928;28;19925;-82
2024/01/24 08:14:36;;;;;;;;;;;;;;;7.75;100.00;99871.63;5039395;28;19949;-81
2024/01/24 08:17:11;;;;;;;;;;;;;;;7.72;100.00;99880.31;5030676;28;19940;-82
2024/01/24 08:19:44;;;;;;;;;;;;;;;7.80;100.00;99881.59;5027430;28;20389;-81
2024/01/24 08:22:18;;;;;;;;;;;;;;;7.84;100.00;99888.06;5013391;28;19925;-81
2024/01/24 08:24:51;;;;;;;;;;;;;;;7.79;100.00;99891.63;5025434;28;19925;-81
2024/01/24 08:27:19;;;;;;;;;;;;;;;7.88;100.00;99885.63;4999313;28;19928;-79
2024/01/24 08:29:52;;;;;;;;;;;;;;;7.94;100.00;99903.44;4978170;28;19935;-80
2024/01/24 08:32:26;;;;;;;;;;;;;;;7.91;100.00;99914.84;4987033;28;19939;-81
2024/01/24 08:34:57;;;;;;;;;;;;;;;7.94;100.00;99917.00;5005630;28;20591;-80
2024/01/24 08:37:30;;;;;;;;;;;;;;;8.07;100.00;99910.97;4996801;28;20479;-81
2024/01/24 08:39:58;;;;;;;;;;;;;;;8.00;100.00;99924.81;5010708;28;20856;-80
2024/01/24 08:42:26;;;;;;;;;;;;;;;7.97;100.00;99936.22;5006513;28;19935;-81
2024/01/24 08:44:54;;;;;;;;;;;;;;;8.00;100.00;99935.66;5016357;28;19935;-82
2024/01/24 08:47:29;;;;;;;;;;;;;;;7.96;100.00;99922.97;5009633;28;19928;-80
2024/01/24 08:50:04;;;;;;;;;;;;;;;7.80;100.00;99933.06;4996181;28;20343;-81
2024/01/24 08:52:32;;;;;;;;;;;;;;;7.74;100.00;99934.19;5029427;28;19929;-80
2024/01/24 08:55:06;;;;;;;;;;;;;;;7.80;100.00;99939.31;4995654;28;19924;-80
2024/01/24 08:57:34;;;;;;;;;;;;;;;7.86;100.00;99937.38;5019303;28;19928;-81
2024/01/24 09:00:08;;;;;;;;;;;;;;;7.82;100.00;99923.56;5008825;28;19936;-80
2024/01/24 09:02:37;;;;;;;;;;;;;;;7.85;100.00;99930.34;5019280;28;21233;-81
2024/01/24 09:05:10;;;;;;;;;;;;;;;7.88;100.00;99953.34;5023500;28;19940;-82
2024/01/24 09:07:43;;;;;;;;;;;;;;;7.90;100.00;99938.44;5022333;28;21216;-81
2024/01/24 09:10:11;;;;;;;;;;;;;;;7.84;100.00;99972.06;5019667;28;19929;-80
2024/01/24 09:12:39;;;;;;;;;;;;;;;7.87;100.00;99959.84;5018410;28;19935;-80
2024/01/24 09:15:12;;;;;;;;;;;;;;;7.82;100.00;99966.13;5021807;28;19935;-80
2024/01/24 09:17:48;;;;;;;;;;;;;;;7.80;100.00;99969.09;5023203;28;19936;-81
2024/01/24 09:20:16;;;;;;;;;;;;;;;7.85;100.00;99973.69;5012573;28;19925;-81
2024/01/24 09:22:45;;;;;;;;;;;;;;;7.73;100.00;99960.44;5024729;28;19929;-81
2024/01/24 09:25:14;;;;;;;;;;;;;;;7.69;100.00;99955.88;5032754;28;19932;-81
2024/01/24 09:27:42;;;;;;;;;;;;;;;7.68;100.00;99975.91;5023793;28;19928;-81
2024/01/24 09:30:15;;;;;;;;;;;;;;;7.92;100.00;99971.47;5020421;28;19925;-81
2024/01/24 09:32:43;;;;;;;;;;;;;;;8.04;100.00;99976.56;5022330;28;19928;-80
2024/01/24 09:35:12;;;;;;;;;;;;;;;8.00;100.00;99967.38;5035556;28;20667;-81
2024/01/24 09:37:45;;;;;;;;;;;;;;;7.94;100.00;99976.59;5024918;28;19928;-81
2024/01/24 09:40:14;;;;;;;;;;;;;;;8.08;100.00;99955.13;5021412;28;19929;-80
2024/01/24 09:42:47;;;;;;;;;;;;;;;8.10;100.00;99988.97;5026607;28;20696;-82
2024/01/24 09:45:22;;;;;;;;;;;;;;;8.08;100.00;99979.50;5022966;28;20799;-81
2024/01/24 09:47:51;;;;;;;;;;;;;;;7.98;100.00;99974.97;5025865;28;19929;-82
2024/01/24 09:50:26;;;;;;;;;;;;;;;7.89;100.00;99984.78;5024051;28;19929;-81
2024/01/24 09:52:56;;;;;;;;;;;;;;;7.84;100.00;99980.19;5002513;28;20799;-81
2024/01/24 09:55:32;;;;;;;;;;;;;;;7.86;100.00;99994.28;5018891;28;19959;-80
2024/01/24 09:58:00;;;;;;;;;;;;;;;7.89;100.00;99984.78;5018035;28;20286;-80
2024/01/24 10:00:28;;;;;;;;;;;;;;;7.94;100.00;99966.59;5019027;28;19928;-83
2024/01/24 10:03:01;;;;;;;;;;;;;;;7.79;100.00;99994.56;5021059;28;19970;-80
2024/01/24 10:05:31;;;;;;;;;;;;;;;7.86;100.00;99993.44;5021425;28;19929;-80
2024/01/24 10:08:05;;;;;;;;;;;;;;;7.80;100.00;99989.94;5018942;28;19936;-82
2024/01/24 10:10:33;;;;;;;;;;;;;;;7.91;100.00;99979.88;4993512;28;20922;-82
2024/01/24 10:13:07;;;;;;;;;;;;;;;7.88;100.00;99992.09;5018097;28;19928;-81
2024/01/24 10:15:38;;;;;;;;;;;;;;;7.85;100.00;100000.78;5011807;28;19929;-82
2024/01/24 10:18:11;;;;;;;;;;;;;;;7.87;100.00;99998.59;5012101;28;19928;-81
2024/01/24 10:21:08;;;;;;;;;;;;;;;;;;;;;
2024/01/24 10:23:36;;;;;;;;;;;;;;;7.80;100.00;99989.94;5021475;28;19936;-80
2024/01/24 10:26:09;;;;;;;;;;;;;;;7.71;100.00;99991.63;4999005;28;19929;-81
2024/01/24 10:28:42;;;;;;;;;;;;;;;7.61;100.00;99998.72;4982513;28;19929;-81
2024/01/24 10:31:15;;;;;;;;;;;;;;;7.61;100.00;99996.00;4996290;28;19936;-81
2024/01/24 10:33:49;;;;;;;;;;;;;;;7.72;100.00;99988.66;5006682;28;19929;-82
2024/01/24 10:36:23;;;;;;;;;;;;;;;7.90;100.00;99992.63;4996638;28;19936;-81
2024/01/24 10:38:59;;;;;;;;;;;;;;;7.96;100.00;99985.28;5011030;28;19936;-80
2024/01/24 10:41:30;;;;;;;;;;;;;;;8.06;100.00;99981.69;5005188;28;19929;-82
2024/01/24 10:44:02;;;;;;;;;;;;;;;8.07;100.00;100003.09;5022752;28;19928;-82
2024/01/24 10:46:36;;;;;;;;;;;;;;;8.10;100.00;99997.09;5012169;28;20629;-81
2024/01/24 10:49:10;;;;;;;;;;;;;;;8.05;100.00;100012.59;4993039;28;19944;-81
2024/01/24 10:51:45;;;;;;;;;;;;;;;7.90;100.00;99995.34;5007819;28;19929;-80
2024/01/24 10:54:18;;;;;;;;;;;;;;;7.80;100.00;100033.28;5008961;28;20891;-80
2024/01/24 10:56:49;;;;;;;;;;;;;;;7.60;100.00;100029.56;5013051;28;19929;-79
2024/01/24 10:59:23;;;;;;;;;;;;;;;7.42;100.00;100041.81;5007433;28;19928;-80
2024/01/24 11:01:51;;;;;;;;;;;;;;;7.26;100.00;100051.84;4995559;28;19928;-80
2024/01/24 11:04:26;;;;;;;;;;;;;;;7.17;100.00;100045.38;4997739;28;19929;-80
2024/01/24 11:07:24;;;;;;;;;;;;;;;7.05;100.00;100034.84;5005498;28;20369;-80
2024/01/24 11:10:03;;;;;;;;;;;;;;;7.04;100.00;100025.09;5006183;28;19928;-81
2024/01/24 11:12:36;;;;;;;;;;;;;;;6.97;100.00;100041.63;5006018;28;19936;-80
2024/01/24 11:15:13;;;;;;;;;;;;;;;6.93;100.00;100023.47;5011964;28;19929;-82
2024/01/24 11:17:46;;;;;;;;;;;;;;;6.97;100.00;100033.50;4996728;28;19939;-80
2024/01/24 11:20:15;;;;;;;;;;;;;;;7.01;100.00;100043.78;5005902;28;19928;-80
2024/01/24 11:22:48;;;;;;;;;;;;;;;6.95;100.00;100021.31;5006118;28;19928;-80
2024/01/24 11:28:31;;;;;;;;;;;;;;;6.95;100.00;100068.13;4980549;28;20585;-81
2024/01/24 11:31:04;;;;;;;;;;;;;;;6.99;100.00;100049.47;5016330;28;19952;-80
2024/01/24 11:33:37;;;;;;;;;;;;;;;6.99;100.00;100068.41;5012575;28;19929;-80
2024/01/24 11:36:13;;;;;;;;;;;;;;;6.95;100.00;100078.94;5025056;28;19928;-81
2024/01/24 11:38:46;;;;;;;;;;;;;;;7.01;100.00;100071.63;5024505;28;20666;-80
2024/01/24 11:41:23;;;;;;;;;;;;;;;7.01;100.00;100090.56;5028626;28;19921;-81
2024/01/24 11:43:58;;;;;;;;;;;;;;;6.94;100.00;100087.31;5004214;28;19936;-80
2024/01/24 11:46:31;;;;;;;;;;;;;;;6.89;100.00;100095.44;5024553;28;19932;-81
2024/01/24 11:49:05;;;;;;;;;;;;;;;6.89;100.00;100100.84;5016042;28;19921;-80
2024/01/24 11:51:42;;;;;;;;;;;;;;;6.84;100.00;100081.91;5014606;28;20266;-81
2024/01/24 11:54:10;;;;;;;;;;;;;;;6.84;100.00;100093.53;5020233;28;20313;-80
2024/01/24 11:56:43;;;;;;;;;;;;;;;6.85;100.00;100102.47;5018148;28;19936;-80
2024/01/24 11:59:21;;;;;;;;;;;;;;;6.75;100.00;100101.38;5015525;28;19929;-80
2024/01/24 12:01:50;;;;;;;;;;;;;;;6.71;100.00;100121.09;4999613;28;19928;-80
2024/01/24 12:04:19;;;;;;;;;;;;;;;6.73;100.00;100127.06;5010117;28;19936;-81
2024/01/24 12:06:47;;;;;;;;;;;;;;;6.68;100.00;100110.81;5002196;28;20035;-82
2024/01/24 12:09:20;;;;;;;;;;;;;;;6.57;100.00;100100.00;5014760;28;20421;-81
2024/01/24 12:11:53;;;;;;;;;;;;;;;6.65;100.00;100114.88;4998202;28;20744;-81
2024/01/24 12:14:28;;;;;;;;;;;;;;;6.68;100.00;100114.34;5035885;28;19944;-80
2024/01/24 12:17:01;;;;;;;;;;;;;;;6.66;100.00;100126.50;5019263;28;19936;-81
2024/01/24 12:19:34;;;;;;;;;;;;;;;6.71;100.00;100124.63;5011162;28;19929;-80
2024/01/24 12:22:08;;;;;;;;;;;;;;;6.63;100.00;100120.56;5018296;28;19929;-80
2024/01/24 12:24:41;;;;;;;;;;;;;;;6.61;100.00;100143.53;5020100;28;19925;-81
2024/01/24 12:27:09;;;;;;;;;;;;;;;6.50;100.00;100150.78;4999805;28;19941;-81
2024/01/24 12:29:39;;;;;;;;;;;;;;;6.46;100.00;100160.50;5006861;28;19936;-81
2024/01/24 12:32:12;;;;;;;;;;;;;;;6.41;100.00;100147.78;5009918;28;20768;-81
2024/01/24 12:34:46;;;;;;;;;;;;;;;6.41;100.00;100163.22;5014089;28;19940;-81
2024/01/24 12:37:20;;;;;;;;;;;;;;;6.46;100.00;100160.50;5015227;28;20779;-80
2024/01/24 12:39:54;;;;;;;;;;;;;;;6.40;100.00;100173.19;5002698;28;19929;-81
2024/01/24 12:42:22;;;;;;;;;;;;;;;6.37;100.00;100160.22;5012782;28;19933;-81
2024/01/24 12:44:56;;;;;;;;;;;;;;;6.44;100.00;100163.47;5010260;28;19996;-81
2024/01/24 12:47:31;;;;;;;;;;;;;;;6.41;100.00;100163.22;5011725;28;19936;-81
2024/01/24 12:50:00;;;;;;;;;;;;;;;6.38;100.00;100172.66;5001392;28;19935;-80
2024/01/24 12:52:33;;;;;;;;;;;;;;;6.40;100.00;100178.59;4994609;28;19954;-80
2024/01/24 12:55:01;;;;;;;;;;;;;;;6.38;100.00;100166.41;5018313;28;19932;-82
2024/01/24 12:57:34;;;;;;;;;;;;;;;6.39;100.00;100176.97;5029265;28;19929;-80
2024/01/24 13:00:10;;;;;;;;;;;;;;;6.38;100.00;100156.44;5010676;28;19936;-80
2024/01/24 13:02:38;;;;;;;;;;;;;;;6.41;100.00;100161.31;4995996;28;19929;-80
2024/01/24 13:05:12;;;;;;;;;;;;;;;6.41;100.00;100176.72;4992026;28;20370;-79
2024/01/24 13:07:45;;;;;;;;;;;;;;;6.40;100.00;100143.47;5006010;28;20555;-79
2024/01/24 13:10:17;;;;;;;;;;;;;;;6.53;100.00;100169.19;5008580;28;19936;-79
2024/01/24 13:12:46;;;;;;;;;;;;;;;6.60;100.00;100193.25;5014201;28;19929;-80